sensor_id;sensor_type;location;lat;lon;timestamp;P1;durP1;ratioP1;P2;durP2;ratioP2
31424;SDS011;18054;51.572;7.372;2023-02-28T00:00:40;9.20;;;4.28;;
31424;SDS011;18054;51.572;7.372;2023-02-28T00:03:12;10.45;;;4.10;;
31424;SDS011;18054;51.572;7.372;2023-02-28T00:05:39;10.15;;;4.65;;
31424;SDS011;18054;51.572;7.372;2023-02-28T00:08:10;14.68;;;4.47;;
31424;SDS011;18054;51.572;7.372;2023-02-28T00:10:39;8.50;;;3.85;;
31424;SDS011;18054;51.572;7.372;2023-02-28T00:13:09;12.55;;;4.03;;
31424;SDS011;18054;51.572;7.372;2023-02-28T00:15:37;13.73;;;4.35;;
31424;SDS011;18054;51.572;7.372;2023-02-28T00:23:02;11.00;;;3.47;;
31424;SDS011;18054;51.572;7.372;2023-02-28T00:25:32;16.17;;;4.28;;
31424;SDS011;18054;51.572;7.372;2023-02-28T00:28:00;10.57;;;3.28;;
31424;SDS011;18054;51.572;7.372;2023-02-28T00:30:28;13.25;;;4.25;;
31424;SDS011;18054;51.572;7.372;2023-02-28T00:35:26;21.08;;;3.85;;
31424;SDS011;18054;51.572;7.372;2023-02-28T00:37:54;13.05;;;3.92;;
31424;SDS011;18054;51.572;7.372;2023-02-28T00:40:27;10.88;;;4.85;;
31424;SDS011;18054;51.572;7.372;2023-02-28T00:42:55;8.95;;;4.22;;
31424;SDS011;18054;51.572;7.372;2023-02-28T00:45:22;9.95;;;3.95;;
31424;SDS011;18054;51.572;7.372;2023-02-28T00:47:57;9.25;;;4.18;;
31424;SDS011;18054;51.572;7.372;2023-02-28T00:50:25;8.52;;;4.03;;
31424;SDS011;18054;51.572;7.372;2023-02-28T00:52:56;11.93;;;3.88;;
31424;SDS011;18054;51.572;7.372;2023-02-28T00:55:28;9.98;;;3.58;;
31424;SDS011;18054;51.572;7.372;2023-02-28T00:58:04;7.22;;;3.05;;
31424;SDS011;18054;51.572;7.372;2023-02-28T01:00:34;9.05;;;3.75;;
31424;SDS011;18054;51.572;7.372;2023-02-28T01:03:08;9.18;;;4.47;;
31424;SDS011;18054;51.572;7.372;2023-02-28T01:05:35;10.23;;;3.92;;
31424;SDS011;18054;51.572;7.372;2023-02-28T01:08:11;7.95;;;3.65;;
31424;SDS011;18054;51.572;7.372;2023-02-28T01:10:47;11.30;;;3.35;;
31424;SDS011;18054;51.572;7.372;2023-02-28T01:13:17;10.55;;;3.40;;
31424;SDS011;18054;51.572;7.372;2023-02-28T01:15:53;8.50;;;3.53;;
31424;SDS011;18054;51.572;7.372;2023-02-28T01:18:21;11.40;;;3.60;;
31424;SDS011;18054;51.572;7.372;2023-02-28T01:20:50;12.27;;;3.28;;
31424;SDS011;18054;51.572;7.372;2023-02-28T01:23:21;9.50;;;3.58;;
31424;SDS011;18054;51.572;7.372;2023-02-28T01:25:51;9.07;;;3.47;;
31424;SDS011;18054;51.572;7.372;2023-02-28T01:28:18;15.68;;;3.88;;
31424;SDS011;18054;51.572;7.372;2023-02-28T01:30:47;10.05;;;3.97;;
31424;SDS011;18054;51.572;7.372;2023-02-28T01:33:15;12.13;;;3.42;;
31424;SDS011;18054;51.572;7.372;2023-02-28T01:35:44;11.85;;;3.20;;
31424;SDS011;18054;51.572;7.372;2023-02-28T01:38:12;8.55;;;3.50;;
31424;SDS011;18054;51.572;7.372;2023-02-28T01:40:48;14.80;;;3.83;;
31424;SDS011;18054;51.572;7.372;2023-02-28T01:43:19;13.48;;;3.30;;
31424;SDS011;18054;51.572;7.372;2023-02-28T01:45:47;7.90;;;3.50;;
31424;SDS011;18054;51.572;7.372;2023-02-28T01:48:21;8.63;;;3.67;;
31424;SDS011;18054;51.572;7.372;2023-02-28T01:50:53;9.48;;;3.70;;
31424;SDS011;18054;51.572;7.372;2023-02-28T01:53:25;9.90;;;3.60;;
31424;SDS011;18054;51.572;7.372;2023-02-28T01:55:55;10.95;;;4.05;;
31424;SDS011;18054;51.572;7.372;2023-02-28T01:58:27;14.35;;;3.83;;
31424;SDS011;18054;51.572;7.372;2023-02-28T02:00:55;8.70;;;3.47;;
31424;SDS011;18054;51.572;7.372;2023-02-28T02:03:25;20.55;;;4.78;;
31424;SDS011;18054;51.572;7.372;2023-02-28T02:05:53;10.52;;;4.47;;
31424;SDS011;18054;51.572;7.372;2023-02-28T02:08:21;10.10;;;3.70;;
31424;SDS011;18054;51.572;7.372;2023-02-28T02:10:50;13.90;;;4.00;;
31424;SDS011;18054;51.572;7.372;2023-02-28T02:16:10;7.63;;;3.80;;
31424;SDS011;18054;51.572;7.372;2023-02-28T02:18:43;9.23;;;3.65;;
31424;SDS011;18054;51.572;7.372;2023-02-28T02:27:09;6.40;;;3.35;;
31424;SDS011;18054;51.572;7.372;2023-02-28T02:29:46;13.93;;;4.35;;
31424;SDS011;18054;51.572;7.372;2023-02-28T02:32:30;8.88;;;3.22;;
31424;SDS011;18054;51.572;7.372;2023-02-28T02:35:11;17.50;;;4.10;;
31424;SDS011;18054;51.572;7.372;2023-02-28T02:40:13;8.68;;;3.55;;
31424;SDS011;18054;51.572;7.372;2023-02-28T02:42:44;12.93;;;3.78;;
31424;SDS011;18054;51.572;7.372;2023-02-28T02:45:14;8.73;;;4.53;;
31424;SDS011;18054;51.572;7.372;2023-02-28T02:47:45;10.77;;;3.80;;
31424;SDS011;18054;51.572;7.372;2023-02-28T02:50:15;6.72;;;3.42;;
31424;SDS011;18054;51.572;7.372;2023-02-28T02:52:45;10.15;;;3.72;;
31424;SDS011;18054;51.572;7.372;2023-02-28T02:55:15;9.52;;;3.80;;
31424;SDS011;18054;51.572;7.372;2023-02-28T02:57:49;9.85;;;3.30;;
31424;SDS011;18054;51.572;7.372;2023-02-28T03:00:18;12.07;;;3.80;;
31424;SDS011;18054;51.572;7.372;2023-02-28T03:02:47;9.80;;;3.80;;
31424;SDS011;18054;51.572;7.372;2023-02-28T03:05:19;12.73;;;3.95;;
31424;SDS011;18054;51.572;7.372;2023-02-28T03:07:49;11.13;;;4.95;;
31424;SDS011;18054;51.572;7.372;2023-02-28T03:10:27;9.68;;;4.13;;
31424;SDS011;18054;51.572;7.372;2023-02-28T03:13:11;21.60;;;4.93;;
31424;SDS011;18054;51.572;7.372;2023-02-28T03:15:41;13.07;;;3.90;;
31424;SDS011;18054;51.572;7.372;2023-02-28T03:18:13;17.92;;;4.35;;
31424;SDS011;18054;51.572;7.372;2023-02-28T03:20:49;17.15;;;3.95;;
31424;SDS011;18054;51.572;7.372;2023-02-28T03:23:21;11.45;;;4.13;;
31424;SDS011;18054;51.572;7.372;2023-02-28T03:25:53;9.55;;;4.30;;
31424;SDS011;18054;51.572;7.372;2023-02-28T03:28:24;16.55;;;4.95;;
31424;SDS011;18054;51.572;7.372;2023-02-28T03:30:59;16.17;;;4.20;;
31424;SDS011;18054;51.572;7.372;2023-02-28T03:33:34;10.30;;;4.13;;
31424;SDS011;18054;51.572;7.372;2023-02-28T03:36:06;13.32;;;4.25;;
31424;SDS011;18054;51.572;7.372;2023-02-28T03:38:35;8.52;;;4.00;;
31424;SDS011;18054;51.572;7.372;2023-02-28T03:41:06;6.35;;;3.55;;
31424;SDS011;18054;51.572;7.372;2023-02-28T03:43:40;13.10;;;4.45;;
31424;SDS011;18054;51.572;7.372;2023-02-28T03:46:12;11.60;;;4.40;;
31424;SDS011;18054;51.572;7.372;2023-02-28T03:48:40;8.10;;;4.07;;
31424;SDS011;18054;51.572;7.372;2023-02-28T03:51:12;9.73;;;4.13;;
31424;SDS011;18054;51.572;7.372;2023-02-28T03:53:44;23.17;;;4.68;;
31424;SDS011;18054;51.572;7.372;2023-02-28T03:56:16;11.45;;;4.13;;
31424;SDS011;18054;51.572;7.372;2023-02-28T03:58:45;11.93;;;4.20;;
31424;SDS011;18054;51.572;7.372;2023-02-28T04:01:15;10.38;;;4.05;;
31424;SDS011;18054;51.572;7.372;2023-02-28T04:03:48;15.68;;;3.88;;
31424;SDS011;18054;51.572;7.372;2023-02-28T04:06:20;13.20;;;4.80;;
31424;SDS011;18054;51.572;7.372;2023-02-28T04:08:48;17.70;;;4.70;;
31424;SDS011;18054;51.572;7.372;2023-02-28T04:11:20;13.93;;;3.83;;
31424;SDS011;18054;51.572;7.372;2023-02-28T04:13:48;7.95;;;4.13;;
31424;SDS011;18054;51.572;7.372;2023-02-28T04:19:00;15.48;;;5.10;;
31424;SDS011;18054;51.572;7.372;2023-02-28T04:21:38;18.88;;;4.10;;
31424;SDS011;18054;51.572;7.372;2023-02-28T04:24:06;12.77;;;5.05;;
31424;SDS011;18054;51.572;7.372;2023-02-28T04:26:36;14.10;;;4.05;;
31424;SDS011;18054;51.572;7.372;2023-02-28T04:29:04;13.15;;;4.60;;
31424;SDS011;18054;51.572;7.372;2023-02-28T04:31:32;17.95;;;5.07;;
31424;SDS011;18054;51.572;7.372;2023-02-28T04:34:05;18.60;;;4.38;;
31424;SDS011;18054;51.572;7.372;2023-02-28T04:36:37;11.73;;;3.92;;
31424;SDS011;18054;51.572;7.372;2023-02-28T04:39:05;11.50;;;4.65;;
31424;SDS011;18054;51.572;7.372;2023-02-28T04:41:34;20.67;;;4.88;;
31424;SDS011;18054;51.572;7.372;2023-02-28T04:44:04;10.27;;;4.32;;
31424;SDS011;18054;51.572;7.372;2023-02-28T04:46:32;12.75;;;5.25;;
31424;SDS011;18054;51.572;7.372;2023-02-28T04:48:59;9.98;;;4.70;;
31424;SDS011;18054;51.572;7.372;2023-02-28T04:51:27;9.75;;;4.60;;
31424;SDS011;18054;51.572;7.372;2023-02-28T04:53:56;30.52;;;5.03;;
31424;SDS011;18054;51.572;7.372;2023-02-28T04:56:26;8.80;;;4.45;;
31424;SDS011;18054;51.572;7.372;2023-02-28T04:58:54;12.25;;;4.45;;
31424;SDS011;18054;51.572;7.372;2023-02-28T05:01:22;28.58;;;4.82;;
31424;SDS011;18054;51.572;7.372;2023-02-28T05:03:50;14.27;;;5.05;;
31424;SDS011;18054;51.572;7.372;2023-02-28T05:06:21;8.35;;;3.92;;
31424;SDS011;18054;51.572;7.372;2023-02-28T05:08:50;10.15;;;4.30;;
31424;SDS011;18054;51.572;7.372;2023-02-28T05:11:20;17.27;;;4.43;;
31424;SDS011;18054;51.572;7.372;2023-02-28T05:13:56;15.90;;;4.85;;
31424;SDS011;18054;51.572;7.372;2023-02-28T05:16:23;12.25;;;4.38;;
31424;SDS011;18054;51.572;7.372;2023-02-28T05:21:25;11.80;;;4.60;;
31424;SDS011;18054;51.572;7.372;2023-02-28T05:23:53;14.13;;;4.30;;
31424;SDS011;18054;51.572;7.372;2023-02-28T05:31:17;8.77;;;3.95;;
31424;SDS011;18054;51.572;7.372;2023-02-28T05:33:45;11.88;;;4.28;;
31424;SDS011;18054;51.572;7.372;2023-02-28T05:36:12;11.73;;;4.47;;
31424;SDS011;18054;51.572;7.372;2023-02-28T05:38:40;26.35;;;4.60;;
31424;SDS011;18054;51.572;7.372;2023-02-28T05:41:08;15.43;;;4.28;;
31424;SDS011;18054;51.572;7.372;2023-02-28T05:43:37;15.77;;;5.22;;
31424;SDS011;18054;51.572;7.372;2023-02-28T05:46:07;10.20;;;4.68;;
31424;SDS011;18054;51.572;7.372;2023-02-28T05:48:38;16.42;;;5.53;;
31424;SDS011;18054;51.572;7.372;2023-02-28T05:51:07;18.10;;;4.65;;
31424;SDS011;18054;51.572;7.372;2023-02-28T05:53:37;14.88;;;5.13;;
31424;SDS011;18054;51.572;7.372;2023-02-28T05:56:05;14.52;;;4.53;;
31424;SDS011;18054;51.572;7.372;2023-02-28T05:58:32;12.88;;;4.47;;
31424;SDS011;18054;51.572;7.372;2023-02-28T06:01:18;16.52;;;4.82;;
31424;SDS011;18054;51.572;7.372;2023-02-28T06:03:47;18.50;;;5.85;;
31424;SDS011;18054;51.572;7.372;2023-02-28T06:06:18;21.25;;;4.43;;
31424;SDS011;18054;51.572;7.372;2023-02-28T06:08:45;21.58;;;5.43;;
31424;SDS011;18054;51.572;7.372;2023-02-28T06:11:13;21.85;;;4.72;;
31424;SDS011;18054;51.572;7.372;2023-02-28T06:13:40;23.98;;;5.47;;
31424;SDS011;18054;51.572;7.372;2023-02-28T06:16:11;28.38;;;6.03;;
31424;SDS011;18054;51.572;7.372;2023-02-28T06:18:40;11.07;;;4.65;;
31424;SDS011;18054;51.572;7.372;2023-02-28T06:21:13;15.82;;;4.55;;
31424;SDS011;18054;51.572;7.372;2023-02-28T06:23:40;15.35;;;5.05;;
31424;SDS011;18054;51.572;7.372;2023-02-28T06:26:08;22.85;;;5.70;;
31424;SDS011;18054;51.572;7.372;2023-02-28T06:28:39;18.73;;;5.60;;
31424;SDS011;18054;51.572;7.372;2023-02-28T06:31:07;20.73;;;5.03;;
31424;SDS011;18054;51.572;7.372;2023-02-28T06:33:38;17.35;;;5.22;;
31424;SDS011;18054;51.572;7.372;2023-02-28T06:36:06;11.90;;;5.32;;
31424;SDS011;18054;51.572;7.372;2023-02-28T06:38:35;11.77;;;4.50;;
31424;SDS011;18054;51.572;7.372;2023-02-28T06:41:03;14.95;;;5.68;;
31424;SDS011;18054;51.572;7.372;2023-02-28T06:43:32;25.30;;;5.18;;
31424;SDS011;18054;51.572;7.372;2023-02-28T06:46:00;11.65;;;5.30;;
31424;SDS011;18054;51.572;7.372;2023-02-28T06:48:28;11.15;;;5.45;;
31424;SDS011;18054;51.572;7.372;2023-02-28T06:51:01;14.60;;;5.82;;
31424;SDS011;18054;51.572;7.372;2023-02-28T06:53:28;15.50;;;5.35;;
31424;SDS011;18054;51.572;7.372;2023-02-28T06:55:57;14.30;;;5.72;;
31424;SDS011;18054;51.572;7.372;2023-02-28T06:58:24;13.07;;;5.93;;
31424;SDS011;18054;51.572;7.372;2023-02-28T07:00:52;14.43;;;5.80;;
31424;SDS011;18054;51.572;7.372;2023-02-28T07:05:47;13.93;;;6.40;;
31424;SDS011;18054;51.572;7.372;2023-02-28T07:08:14;12.30;;;6.25;;
31424;SDS011;18054;51.572;7.372;2023-02-28T07:10:42;15.60;;;6.25;;
31424;SDS011;18054;51.572;7.372;2023-02-28T07:13:11;13.38;;;6.10;;
31424;SDS011;18054;51.572;7.372;2023-02-28T07:15:38;24.00;;;6.35;;
31424;SDS011;18054;51.572;7.372;2023-02-28T07:18:09;17.88;;;6.95;;
31424;SDS011;18054;51.572;7.372;2023-02-28T07:20:36;15.40;;;6.80;;
31424;SDS011;18054;51.572;7.372;2023-02-28T07:23:04;12.65;;;6.55;;
31424;SDS011;18054;51.572;7.372;2023-02-28T07:25:31;23.30;;;9.43;;
31424;SDS011;18054;51.572;7.372;2023-02-28T07:27:59;26.33;;;8.07;;
31424;SDS011;18054;51.572;7.372;2023-02-28T07:30:27;45.00;;;8.93;;
31424;SDS011;18054;51.572;7.372;2023-02-28T07:32:55;22.65;;;8.55;;
31424;SDS011;18054;51.572;7.372;2023-02-28T07:35:23;28.13;;;7.50;;
31424;SDS011;18054;51.572;7.372;2023-02-28T07:37:50;21.80;;;8.45;;
31424;SDS011;18054;51.572;7.372;2023-02-28T07:40:18;19.90;;;6.95;;
31424;SDS011;18054;51.572;7.372;2023-02-28T07:42:45;17.95;;;6.43;;
31424;SDS011;18054;51.572;7.372;2023-02-28T07:45:15;21.10;;;7.25;;
31424;SDS011;18054;51.572;7.372;2023-02-28T07:50:14;14.25;;;6.82;;
31424;SDS011;18054;51.572;7.372;2023-02-28T07:52:42;17.98;;;6.68;;
31424;SDS011;18054;51.572;7.372;2023-02-28T07:55:10;15.65;;;7.38;;
31424;SDS011;18054;51.572;7.372;2023-02-28T07:57:37;15.25;;;7.18;;
31424;SDS011;18054;51.572;7.372;2023-02-28T08:00:05;32.63;;;7.68;;
31424;SDS011;18054;51.572;7.372;2023-02-28T08:02:39;19.02;;;7.60;;
31424;SDS011;18054;51.572;7.372;2023-02-28T08:05:07;21.15;;;7.38;;
31424;SDS011;18054;51.572;7.372;2023-02-28T08:07:35;20.50;;;8.70;;
31424;SDS011;18054;51.572;7.372;2023-02-28T08:10:03;19.05;;;7.53;;
31424;SDS011;18054;51.572;7.372;2023-02-28T08:12:32;25.88;;;6.28;;
31424;SDS011;18054;51.572;7.372;2023-02-28T08:14:59;17.00;;;5.93;;
31424;SDS011;18054;51.572;7.372;2023-02-28T08:17:27;16.70;;;5.25;;
31424;SDS011;18054;51.572;7.372;2023-02-28T08:19:54;28.85;;;6.43;;
31424;SDS011;18054;51.572;7.372;2023-02-28T08:22:22;13.82;;;6.03;;
31424;SDS011;18054;51.572;7.372;2023-02-28T08:24:50;11.07;;;4.72;;
31424;SDS011;18054;51.572;7.372;2023-02-28T08:27:18;23.90;;;5.03;;
31424;SDS011;18054;51.572;7.372;2023-02-28T08:29:45;14.40;;;5.45;;
31424;SDS011;18054;51.572;7.372;2023-02-28T08:32:13;13.80;;;5.25;;
31424;SDS011;18054;51.572;7.372;2023-02-28T08:34:55;21.80;;;6.07;;
31424;SDS011;18054;51.572;7.372;2023-02-28T08:37:22;11.98;;;5.22;;
31424;SDS011;18054;51.572;7.372;2023-02-28T08:39:51;18.23;;;5.22;;
31424;SDS011;18054;51.572;7.372;2023-02-28T08:42:21;15.95;;;5.65;;
31424;SDS011;18054;51.572;7.372;2023-02-28T08:44:49;17.52;;;5.43;;
31424;SDS011;18054;51.572;7.372;2023-02-28T08:47:16;15.93;;;5.88;;
31424;SDS011;18054;51.572;7.372;2023-02-28T08:49:44;10.52;;;5.68;;
31424;SDS011;18054;51.572;7.372;2023-02-28T08:52:11;21.48;;;7.15;;
31424;SDS011;18054;51.572;7.372;2023-02-28T08:54:38;11.15;;;5.03;;
31424;SDS011;18054;51.572;7.372;2023-02-28T08:57:07;13.63;;;5.68;;
31424;SDS011;18054;51.572;7.372;2023-02-28T08:59:35;11.93;;;3.92;;
31424;SDS011;18054;51.572;7.372;2023-02-28T09:02:02;10.45;;;4.10;;
31424;SDS011;18054;51.572;7.372;2023-02-28T09:04:29;11.25;;;5.03;;
31424;SDS011;18054;51.572;7.372;2023-02-28T09:06:57;11.32;;;4.10;;
31424;SDS011;18054;51.572;7.372;2023-02-28T09:09:25;19.77;;;4.88;;
31424;SDS011;18054;51.572;7.372;2023-02-28T09:11:52;15.88;;;4.65;;
31424;SDS011;18054;51.572;7.372;2023-02-28T09:14:23;12.93;;;5.93;;
31424;SDS011;18054;51.572;7.372;2023-02-28T09:16:50;12.50;;;4.82;;
31424;SDS011;18054;51.572;7.372;2023-02-28T09:19:18;11.00;;;4.38;;
31424;SDS011;18054;51.572;7.372;2023-02-28T09:21:45;16.45;;;4.20;;
31424;SDS011;18054;51.572;7.372;2023-02-28T09:24:13;12.77;;;4.97;;
31424;SDS011;18054;51.572;7.372;2023-02-28T09:26:41;17.95;;;3.67;;
31424;SDS011;18054;51.572;7.372;2023-02-28T09:29:30;13.70;;;3.83;;
31424;SDS011;18054;51.572;7.372;2023-02-28T09:31:57;7.18;;;3.50;;
31424;SDS011;18054;51.572;7.372;2023-02-28T09:36:53;16.30;;;3.78;;
31424;SDS011;18054;51.572;7.372;2023-02-28T09:39:21;13.50;;;3.88;;
31424;SDS011;18054;51.572;7.372;2023-02-28T09:44:18;10.60;;;3.17;;
31424;SDS011;18054;51.572;7.372;2023-02-28T09:46:49;11.88;;;3.72;;
31424;SDS011;18054;51.572;7.372;2023-02-28T09:49:20;6.05;;;3.08;;
31424;SDS011;18054;51.572;7.372;2023-02-28T09:51:50;5.43;;;2.78;;
31424;SDS011;18054;51.572;7.372;2023-02-28T09:54:19;5.60;;;2.78;;
31424;SDS011;18054;51.572;7.372;2023-02-28T09:56:48;6.55;;;2.80;;
31424;SDS011;18054;51.572;7.372;2023-02-28T09:59:22;10.63;;;3.35;;
31424;SDS011;18054;51.572;7.372;2023-02-28T10:01:54;8.60;;;3.55;;
31424;SDS011;18054;51.572;7.372;2023-02-28T10:04:28;8.60;;;2.90;;
31424;SDS011;18054;51.572;7.372;2023-02-28T10:06:59;6.53;;;3.08;;
31424;SDS011;18054;51.572;7.372;2023-02-28T10:09:29;4.25;;;2.15;;
31424;SDS011;18054;51.572;7.372;2023-02-28T10:12:01;18.60;;;2.80;;
31424;SDS011;18054;51.572;7.372;2023-02-28T10:14:31;6.55;;;1.98;;
31424;SDS011;18054;51.572;7.372;2023-02-28T10:17:03;6.63;;;2.28;;
31424;SDS011;18054;51.572;7.372;2023-02-28T10:19:33;4.18;;;2.25;;
31424;SDS011;18054;51.572;7.372;2023-02-28T10:22:03;16.17;;;2.13;;
31424;SDS011;18054;51.572;7.372;2023-02-28T10:24:32;4.03;;;1.77;;
31424;SDS011;18054;51.572;7.372;2023-02-28T10:27:06;15.73;;;2.42;;
31424;SDS011;18054;51.572;7.372;2023-02-28T10:29:37;5.72;;;1.95;;
31424;SDS011;18054;51.572;7.372;2023-02-28T10:32:08;8.30;;;2.55;;
31424;SDS011;18054;51.572;7.372;2023-02-28T10:34:38;5.50;;;2.05;;
31424;SDS011;18054;51.572;7.372;2023-02-28T10:37:05;7.18;;;2.25;;
31424;SDS011;18054;51.572;7.372;2023-02-28T10:39:35;7.22;;;1.95;;
31424;SDS011;18054;51.572;7.372;2023-02-28T10:42:03;3.67;;;1.90;;
31424;SDS011;18054;51.572;7.372;2023-02-28T10:44:30;4.63;;;1.63;;
31424;SDS011;18054;51.572;7.372;2023-02-28T10:46:58;12.85;;;2.10;;
31424;SDS011;18054;51.572;7.372;2023-02-28T10:54:24;4.30;;;1.75;;
31424;SDS011;18054;51.572;7.372;2023-02-28T10:59:39;4.65;;;1.90;;
31424;SDS011;18054;51.572;7.372;2023-02-28T11:04:48;5.10;;;1.83;;
31424;SDS011;18054;51.572;7.372;2023-02-28T11:07:17;12.20;;;2.13;;
31424;SDS011;18054;51.572;7.372;2023-02-28T11:09:50;11.80;;;2.10;;
31424;SDS011;18054;51.572;7.372;2023-02-28T11:12:22;3.70;;;1.70;;
31424;SDS011;18054;51.572;7.372;2023-02-28T11:14:50;7.05;;;1.95;;
31424;SDS011;18054;51.572;7.372;2023-02-28T11:17:19;7.38;;;2.25;;
31424;SDS011;18054;51.572;7.372;2023-02-28T11:19:48;13.25;;;2.13;;
31424;SDS011;18054;51.572;7.372;2023-02-28T11:22:17;5.28;;;2.22;;
31424;SDS011;18054;51.572;7.372;2023-02-28T11:24:47;3.33;;;1.63;;
31424;SDS011;18054;51.572;7.372;2023-02-28T11:33:01;5.50;;;1.85;;
31424;SDS011;18054;51.572;7.372;2023-02-28T11:35:30;5.60;;;1.83;;
31424;SDS011;18054;51.572;7.372;2023-02-28T11:37:57;4.68;;;1.85;;
31424;SDS011;18054;51.572;7.372;2023-02-28T11:40:28;8.75;;;2.65;;
31424;SDS011;18054;51.572;7.372;2023-02-28T11:43:01;7.97;;;1.67;;
31424;SDS011;18054;51.572;7.372;2023-02-28T11:45:38;5.63;;;2.03;;
31424;SDS011;18054;51.572;7.372;2023-02-28T11:48:12;9.18;;;2.55;;
31424;SDS011;18054;51.572;7.372;2023-02-28T11:50:45;5.10;;;1.90;;
31424;SDS011;18054;51.572;7.372;2023-02-28T11:53:17;6.45;;;2.30;;
31424;SDS011;18054;51.572;7.372;2023-02-28T11:55:49;4.63;;;1.83;;
31424;SDS011;18054;51.572;7.372;2023-02-28T12:01:14;4.53;;;2.30;;
31424;SDS011;18054;51.572;7.372;2023-02-28T12:03:49;3.95;;;2.08;;
31424;SDS011;18054;51.572;7.372;2023-02-28T12:06:23;6.25;;;2.15;;
31424;SDS011;18054;51.572;7.372;2023-02-28T12:08:55;6.35;;;2.00;;
31424;SDS011;18054;51.572;7.372;2023-02-28T12:11:29;6.78;;;2.22;;
31424;SDS011;18054;51.572;7.372;2023-02-28T12:14:06;5.85;;;2.45;;
31424;SDS011;18054;51.572;7.372;2023-02-28T12:16:45;8.48;;;1.85;;
31424;SDS011;18054;51.572;7.372;2023-02-28T12:19:18;6.97;;;2.08;;
31424;SDS011;18054;51.572;7.372;2023-02-28T12:21:50;4.57;;;2.00;;
31424;SDS011;18054;51.572;7.372;2023-02-28T12:24:26;4.25;;;1.83;;
31424;SDS011;18054;51.572;7.372;2023-02-28T12:26:56;6.63;;;3.10;;
31424;SDS011;18054;51.572;7.372;2023-02-28T12:29:27;6.50;;;2.35;;
31424;SDS011;18054;51.572;7.372;2023-02-28T12:31:56;5.88;;;2.50;;
31424;SDS011;18054;51.572;7.372;2023-02-28T12:34:29;15.13;;;2.58;;
31424;SDS011;18054;51.572;7.372;2023-02-28T12:36:58;6.07;;;2.47;;
31424;SDS011;18054;51.572;7.372;2023-02-28T12:39:28;4.57;;;2.25;;
31424;SDS011;18054;51.572;7.372;2023-02-28T12:42:16;7.47;;;2.40;;
31424;SDS011;18054;51.572;7.372;2023-02-28T12:44:46;4.70;;;2.17;;
31424;SDS011;18054;51.572;7.372;2023-02-28T12:47:18;5.65;;;2.65;;
31424;SDS011;18054;51.572;7.372;2023-02-28T12:49:48;5.65;;;2.55;;
31424;SDS011;18054;51.572;7.372;2023-02-28T12:52:17;15.82;;;2.65;;
31424;SDS011;18054;51.572;7.372;2023-02-28T12:54:47;4.25;;;2.20;;
31424;SDS011;18054;51.572;7.372;2023-02-28T12:57:17;6.22;;;2.22;;
31424;SDS011;18054;51.572;7.372;2023-02-28T12:59:48;10.07;;;2.47;;
31424;SDS011;18054;51.572;7.372;2023-02-28T13:02:27;3.90;;;1.98;;
31424;SDS011;18054;51.572;7.372;2023-02-28T13:08:03;5.18;;;2.05;;
31424;SDS011;18054;51.572;7.372;2023-02-28T13:10:38;3.95;;;1.80;;
31424;SDS011;18054;51.572;7.372;2023-02-28T13:13:11;6.80;;;1.65;;
31424;SDS011;18054;51.572;7.372;2023-02-28T13:15:40;5.32;;;2.03;;
31424;SDS011;18054;51.572;7.372;2023-02-28T13:18:25;7.32;;;2.55;;
31424;SDS011;18054;51.572;7.372;2023-02-28T13:20:54;3.15;;;1.63;;
31424;SDS011;18054;51.572;7.372;2023-02-28T13:23:37;5.38;;;2.00;;
31424;SDS011;18054;51.572;7.372;2023-02-28T13:26:06;4.82;;;2.22;;
31424;SDS011;18054;51.572;7.372;2023-02-28T13:34:20;7.45;;;2.88;;
31424;SDS011;18054;51.572;7.372;2023-02-28T13:36:47;4.97;;;2.08;;
31424;SDS011;18054;51.572;7.372;2023-02-28T13:47:36;5.90;;;2.00;;
31424;SDS011;18054;51.572;7.372;2023-02-28T13:50:19;3.45;;;1.90;;
31424;SDS011;18054;51.572;7.372;2023-02-28T13:52:48;5.50;;;2.50;;
31424;SDS011;18054;51.572;7.372;2023-02-28T13:55:22;8.35;;;2.33;;
31424;SDS011;18054;51.572;7.372;2023-02-28T13:57:55;3.95;;;2.00;;
31424;SDS011;18054;51.572;7.372;2023-02-28T14:00:31;5.32;;;2.53;;
31424;SDS011;18054;51.572;7.372;2023-02-28T14:03:10;5.13;;;2.05;;
31424;SDS011;18054;51.572;7.372;2023-02-28T14:05:38;5.00;;;2.00;;
31424;SDS011;18054;51.572;7.372;2023-02-28T14:08:06;9.30;;;2.35;;
31424;SDS011;18054;51.572;7.372;2023-02-28T14:10:41;5.68;;;2.78;;
31424;SDS011;18054;51.572;7.372;2023-02-28T14:13:14;6.10;;;2.08;;
31424;SDS011;18054;51.572;7.372;2023-02-28T14:16:03;7.03;;;1.80;;
31424;SDS011;18054;51.572;7.372;2023-02-28T14:18:33;6.18;;;2.25;;
31424;SDS011;18054;51.572;7.372;2023-02-28T14:21:04;9.20;;;2.20;;
31424;SDS011;18054;51.572;7.372;2023-02-28T14:26:20;5.97;;;2.55;;
31424;SDS011;18054;51.572;7.372;2023-02-28T14:31:32;5.60;;;2.25;;
31424;SDS011;18054;51.572;7.372;2023-02-28T14:34:12;7.43;;;2.25;;
31424;SDS011;18054;51.572;7.372;2023-02-28T14:36:42;4.40;;;1.90;;
31424;SDS011;18054;51.572;7.372;2023-02-28T14:39:11;4.45;;;2.20;;
31424;SDS011;18054;51.572;7.372;2023-02-28T14:41:42;7.40;;;2.20;;
31424;SDS011;18054;51.572;7.372;2023-02-28T14:44:14;6.65;;;2.70;;
31424;SDS011;18054;51.572;7.372;2023-02-28T14:46:45;4.22;;;2.10;;
31424;SDS011;18054;51.572;7.372;2023-02-28T14:49:18;5.35;;;1.90;;
31424;SDS011;18054;51.572;7.372;2023-02-28T14:51:50;7.18;;;2.10;;
31424;SDS011;18054;51.572;7.372;2023-02-28T14:54:31;6.28;;;2.20;;
31424;SDS011;18054;51.572;7.372;2023-02-28T14:57:00;4.38;;;1.95;;
31424;SDS011;18054;51.572;7.372;2023-02-28T14:59:35;4.07;;;1.85;;
31424;SDS011;18054;51.572;7.372;2023-02-28T15:02:18;9.13;;;2.50;;
31424;SDS011;18054;51.572;7.372;2023-02-28T15:04:54;8.68;;;2.85;;
31424;SDS011;18054;51.572;7.372;2023-02-28T15:07:24;4.60;;;2.25;;
31424;SDS011;18054;51.572;7.372;2023-02-28T15:10:13;9.05;;;2.45;;
31424;SDS011;18054;51.572;7.372;2023-02-28T15:12:42;8.50;;;3.42;;
31424;SDS011;18054;51.572;7.372;2023-02-28T15:15:14;10.07;;;2.63;;
31424;SDS011;18054;51.572;7.372;2023-02-28T15:17:42;7.28;;;2.60;;
31424;SDS011;18054;51.572;7.372;2023-02-28T15:20:13;7.03;;;2.58;;
31424;SDS011;18054;51.572;7.372;2023-02-28T15:22:42;7.88;;;2.88;;
31424;SDS011;18054;51.572;7.372;2023-02-28T15:27:39;6.15;;;2.50;;
31424;SDS011;18054;51.572;7.372;2023-02-28T15:30:13;5.85;;;2.30;;
31424;SDS011;18054;51.572;7.372;2023-02-28T15:32:46;5.60;;;2.60;;
31424;SDS011;18054;51.572;7.372;2023-02-28T15:35:33;10.05;;;3.60;;
31424;SDS011;18054;51.572;7.372;2023-02-28T15:38:15;5.82;;;2.80;;
31424;SDS011;18054;51.572;7.372;2023-02-28T15:40:43;10.73;;;3.60;;
31424;SDS011;18054;51.572;7.372;2023-02-28T15:43:15;6.07;;;3.03;;
31424;SDS011;18054;51.572;7.372;2023-02-28T15:45:44;6.00;;;3.40;;
31424;SDS011;18054;51.572;7.372;2023-02-28T15:48:16;5.43;;;3.03;;
31424;SDS011;18054;51.572;7.372;2023-02-28T15:50:48;8.60;;;3.17;;
31424;SDS011;18054;51.572;7.372;2023-02-28T15:53:16;7.50;;;3.13;;
31424;SDS011;18054;51.572;7.372;2023-02-28T15:55:44;6.13;;;2.70;;
31424;SDS011;18054;51.572;7.372;2023-02-28T15:58:14;12.63;;;4.28;;
31424;SDS011;18054;51.572;7.372;2023-02-28T16:00:43;7.47;;;3.25;;
31424;SDS011;18054;51.572;7.372;2023-02-28T16:03:24;10.63;;;3.20;;
31424;SDS011;18054;51.572;7.372;2023-02-28T16:06:09;9.10;;;3.13;;
31424;SDS011;18054;51.572;7.372;2023-02-28T16:08:48;8.43;;;3.15;;
31424;SDS011;18054;51.572;7.372;2023-02-28T16:11:19;13.80;;;3.50;;
31424;SDS011;18054;51.572;7.372;2023-02-28T16:13:50;11.52;;;3.20;;
31424;SDS011;18054;51.572;7.372;2023-02-28T16:16:19;8.10;;;3.38;;
31424;SDS011;18054;51.572;7.372;2023-02-28T16:18:47;6.95;;;3.13;;
31424;SDS011;18054;51.572;7.372;2023-02-28T16:21:16;8.07;;;2.92;;
31424;SDS011;18054;51.572;7.372;2023-02-28T16:23:43;14.73;;;3.30;;